Time;durP1;ratioP1;P1;durP2;ratioP2;P2;SDS_P1;SDS_P2;PMS_P1;PMS_P2;Temp;Humidity;BMP_temperature;BMP_pressure;BME280_temperature;BME280_humidity;BME280_pressure;Samples;Min_cycle;Max_cycle;Signal;HPM_P1;HPM_P2
2023/03/15 00:00:25;;;;;;;10.23;2.40;;;2.70;99.90;;;;;;5057944;28;20982;-66
2023/03/15 00:02:52;;;;;;;9.87;2.17;;;2.80;99.90;;;;;;5057777;28;20498;-66
2023/03/15 00:05:20;;;;;;;5.77;2.20;;;2.80;99.90;;;;;;5058307;28;20451;-66
2023/03/15 00:07:47;;;;;;;4.13;2.40;;;2.80;99.90;;;;;;5058028;28;20467;-68
2023/03/15 00:10:14;;;;;;;7.93;2.63;;;2.80;99.90;;;;;;5057998;28;20465;-65
2023/03/15 00:12:42;;;;;;;12.90;3.30;;;2.80;99.90;;;;;;5057929;28;20554;-67
2023/03/15 00:15:13;;;;;;;7.03;2.30;;;2.80;99.90;;;;;;5057588;28;20493;-68
2023/03/15 00:17:41;;;;;;;7.90;2.60;;;2.70;99.90;;;;;;5057835;28;20443;-66
2023/03/15 00:20:09;;;;;;;7.67;2.27;;;2.70;99.90;;;;;;5058208;28;20563;-66
2023/03/15 00:22:36;;;;;;;7.97;1.97;;;2.70;99.90;;;;;;5058056;28;20463;-66
2023/03/15 00:25:04;;;;;;;8.03;2.90;;;2.70;99.90;;;;;;5058013;28;20554;-66
2023/03/15 00:27:30;;;;;;;6.23;2.20;;;2.70;99.90;;;;;;5057480;28;20455;-65
2023/03/15 00:29:57;;;;;;;10.43;2.43;;;2.70;99.90;;;;;;5057948;28;20491;-67
2023/03/15 00:32:24;;;;;;;6.67;1.80;;;2.70;99.90;;;;;;5057536;28;20456;-66
2023/03/15 00:34:53;;;;;;;6.73;1.87;;;2.70;99.90;;;;;;5057152;28;20838;-68
2023/03/15 00:37:20;;;;;;;5.90;2.10;;;2.70;99.90;;;;;;5057311;28;20460;-68
2023/03/15 00:39:47;;;;;;;8.57;2.20;;;2.70;99.90;;;;;;5057137;28;20459;-67
2023/03/15 00:42:15;;;;;;;12.77;2.20;;;2.70;99.90;;;;;;5057190;28;20806;-67
2023/03/15 00:44:42;;;;;;;13.73;2.53;;;2.70;99.90;;;;;;5057159;28;20935;-68
2023/03/15 00:47:10;;;;;;;9.00;1.80;;;2.60;99.90;;;;;;5057426;28;20469;-67
2023/03/15 00:49:37;;;;;;;9.70;2.17;;;2.70;99.90;;;;;;5056702;28;20869;-66
2023/03/15 00:52:06;;;;;;;5.57;1.90;;;2.70;99.90;;;;;;5056909;28;20455;-67
2023/03/15 00:54:34;;;;;;;9.77;1.90;;;2.70;99.90;;;;;;5056892;28;20485;-67
2023/03/15 00:57:01;;;;;;;13.50;2.90;;;2.60;99.90;;;;;;5055932;28;20499;-67
2023/03/15 00:59:33;;;;;;;7.23;2.50;;;2.60;99.90;;;;;;5057313;28;20538;-67
2023/03/15 01:02:00;;;;;;;6.00;2.30;;;2.60;99.90;;;;;;5057214;28;20539;-67
2023/03/15 01:04:27;;;;;;;5.50;1.60;;;2.50;99.90;;;;;;5057850;28;20447;-66
2023/03/15 01:06:54;;;;;;;7.73;2.13;;;2.50;99.90;;;;;;5056921;28;20455;-67
2023/03/15 01:09:23;;;;;;;7.53;2.67;;;2.50;99.90;;;;;;5057296;28;20540;-67
2023/03/15 01:11:50;;;;;;;7.00;2.30;;;2.40;99.90;;;;;;5057153;28;20520;-66
2023/03/15 01:14:18;;;;;;;7.23;2.43;;;2.50;99.90;;;;;;5056318;28;20573;-68
2023/03/15 01:16:45;;;;;;;3.60;1.97;;;2.40;99.90;;;;;;5057285;28;20440;-66
2023/03/15 01:19:12;;;;;;;4.30;1.90;;;2.40;99.90;;;;;;5056625;28;20505;-67
2023/03/15 01:21:39;;;;;;;11.83;2.43;;;2.50;99.90;;;;;;5057275;28;20817;-67
2023/03/15 01:24:07;;;;;;;6.97;2.10;;;2.50;99.90;;;;;;5056942;28;20455;-66
2023/03/15 01:26:35;;;;;;;5.03;2.40;;;2.40;99.90;;;;;;5056646;28;20448;-66
2023/03/15 01:29:02;;;;;;;10.53;3.20;;;2.40;99.90;;;;;;5056945;28;20534;-66
2023/03/15 01:31:30;;;;;;;5.80;2.20;;;2.50;99.90;;;;;;5056392;28;20459;-68
2023/03/15 01:33:58;;;;;;;6.07;2.20;;;2.50;99.90;;;;;;5057308;28;20863;-66
2023/03/15 01:36:25;;;;;;;9.23;2.80;;;2.40;99.90;;;;;;5056156;28;20471;-66
2023/03/15 01:38:53;;;;;;;9.63;2.27;;;2.40;99.90;;;;;;5057231;28;20455;-66
2023/03/15 01:41:23;;;;;;;6.30;1.90;;;2.40;99.90;;;;;;5056942;28;20501;-67
2023/03/15 01:43:51;;;;;;;8.87;1.97;;;2.40;99.90;;;;;;5056733;28;20461;-66
2023/03/15 01:46:23;;;;;;;10.30;2.00;;;2.30;99.90;;;;;;5056156;28;20481;-66
2023/03/15 01:48:56;;;;;;;7.80;2.10;;;2.40;99.90;;;;;;5056319;28;20776;-66
2023/03/15 01:51:26;;;;;;;7.97;1.70;;;2.40;99.90;;;;;;5056334;28;20440;-67
2023/03/15 01:53:57;;;;;;;8.30;1.93;;;2.30;99.90;;;;;;5056103;28;20582;-67
2023/03/15 01:56:25;;;;;;;6.27;2.30;;;2.30;99.90;;;;;;5056090;28;20435;-66
2023/03/15 01:58:56;;;;;;;6.10;2.80;;;2.40;99.90;;;;;;5056256;28;20546;-67
2023/03/15 02:01:23;;;;;;;10.10;2.10;;;2.30;99.90;;;;;;5055901;28;20451;-67
2023/03/15 02:03:56;;;;;;;7.67;2.50;;;2.20;99.90;;;;;;5056624;28;20451;-65
2023/03/15 02:06:24;;;;;;;9.80;2.40;;;2.30;99.90;;;;;;5056771;28;20444;-66
2023/03/15 02:08:54;;;;;;;6.70;2.20;;;2.30;99.90;;;;;;5056061;28;20466;-65
2023/03/15 02:11:24;;;;;;;8.97;2.03;;;2.30;99.90;;;;;;5057183;28;20451;-66
2023/03/15 02:13:53;;;;;;;18.77;4.60;;;2.30;99.90;;;;;;5056030;28;20519;-66
2023/03/15 02:16:21;;;;;;;12.70;2.10;;;2.30;99.90;;;;;;5056251;28;20748;-67
2023/03/15 02:18:48;;;;;;;6.13;2.00;;;2.30;99.90;;;;;;5056215;28;20529;-66
2023/03/15 02:21:25;;;;;;;10.57;2.40;;;2.30;99.90;;;;;;5055868;28;20451;-68
2023/03/15 02:24:04;;;;;;;6.87;1.97;;;2.20;99.90;;;;;;5056118;28;20441;-67
2023/03/15 02:26:39;;;;;;;8.50;2.13;;;2.20;99.90;;;;;;5055553;28;20538;-66
2023/03/15 02:29:07;;;;;;;9.27;2.10;;;2.30;99.90;;;;;;5055869;28;20911;-66
2023/03/15 02:31:36;;;;;;;5.87;2.30;;;2.20;99.90;;;;;;5055705;28;20455;-67
2023/03/15 02:34:05;;;;;;;7.23;2.07;;;2.20;99.90;;;;;;5055653;28;20562;-67
2023/03/15 02:36:33;;;;;;;8.27;2.07;;;2.20;99.90;;;;;;5055405;28;20455;-68
2023/03/15 02:39:01;;;;;;;4.27;1.70;;;2.10;99.90;;;;;;5055780;28;20542;-66
2023/03/15 02:41:32;;;;;;;4.00;1.93;;;2.10;99.90;;;;;;5052996;28;20578;-65
2023/03/15 02:44:04;;;;;;;5.97;2.10;;;2.20;99.90;;;;;;5035385;28;20440;-67
2023/03/15 02:46:32;;;;;;;9.00;2.33;;;2.20;99.90;;;;;;5036024;28;20500;-66
2023/03/15 02:49:01;;;;;;;12.13;2.53;;;2.20;99.90;;;;;;5035109;28;20551;-68
2023/03/15 02:51:29;;;;;;;7.43;2.30;;;2.20;99.90;;;;;;5035709;28;20550;-67
2023/03/15 02:53:56;;;;;;;5.80;2.63;;;2.20;99.90;;;;;;5034820;28;20600;-68
2023/03/15 02:56:23;;;;;;;8.03;2.33;;;2.10;99.90;;;;;;5035379;28;20456;-67
2023/03/15 02:58:50;;;;;;;8.77;3.17;;;2.00;99.90;;;;;;5035174;28;20452;-67
2023/03/15 03:01:18;;;;;;;6.03;2.17;;;2.10;99.90;;;;;;5035310;28;20860;-66
2023/03/15 03:03:47;;;;;;;5.27;2.13;;;2.10;99.90;;;;;;5034879;28;20502;-67
2023/03/15 03:06:15;;;;;;;5.73;2.10;;;2.10;99.90;;;;;;5035075;28;20537;-66
2023/03/15 03:08:45;;;;;;;9.00;2.07;;;2.00;99.90;;;;;;5035353;28;20827;-66
2023/03/15 03:11:12;;;;;;;5.90;1.70;;;2.10;99.90;;;;;;5035654;28;20799;-66
2023/03/15 03:13:40;;;;;;;5.87;2.17;;;2.00;99.90;;;;;;5034948;28;20959;-67
2023/03/15 03:16:07;;;;;;;12.60;3.10;;;2.10;99.90;;;;;;5034789;28;20670;-67
2023/03/15 03:18:34;;;;;;;11.10;2.70;;;2.10;99.90;;;;;;5035085;28;20917;-66
2023/03/15 03:21:04;;;;;;;13.73;2.17;;;2.10;99.90;;;;;;5038367;28;20481;-66
2023/03/15 03:23:32;;;;;;;3.33;2.10;;;2.20;99.90;;;;;;5041354;28;20471;-66
2023/03/15 03:25:59;;;;;;;6.70;2.67;;;2.20;99.90;;;;;;5039240;28;20460;-67
2023/03/15 03:28:29;;;;;;;7.40;2.43;;;2.20;99.90;;;;;;5039562;28;20556;-67
2023/03/15 03:30:57;;;;;;;7.87;2.00;;;2.20;99.90;;;;;;5039365;28;20464;-66
2023/03/15 03:33:24;;;;;;;10.30;2.20;;;2.20;99.90;;;;;;5039429;28;20464;-68
2023/03/15 03:35:52;;;;;;;12.37;1.77;;;2.30;99.90;;;;;;5039595;28;20571;-67
2023/03/15 03:38:21;;;;;;;3.90;1.83;;;2.30;99.90;;;;;;5039571;28;20471;-68
2023/03/15 03:40:48;;;;;;;7.77;2.00;;;2.40;99.90;;;;;;5039236;28;20456;-66
2023/03/15 03:43:14;;;;;;;3.67;1.90;;;2.40;99.90;;;;;;5039283;28;20456;-66
2023/03/15 03:45:41;;;;;;;11.40;2.53;;;2.40;99.90;;;;;;5048493;28;20530;-67
2023/03/15 03:48:08;;;;;;;12.13;2.30;;;2.40;99.90;;;;;;5059466;28;20469;-65
2023/03/15 03:50:35;;;;;;;4.73;1.90;;;2.40;99.90;;;;;;5059478;28;20550;-67
2023/03/15 03:53:02;;;;;;;11.33;2.43;;;2.40;99.90;;;;;;5059172;28;20485;-66
2023/03/15 03:55:32;;;;;;;7.10;2.03;;;2.40;99.90;;;;;;5059024;28;20565;-67
2023/03/15 03:57:59;;;;;;;9.10;1.90;;;2.40;99.90;;;;;;5058658;28;20446;-67
2023/03/15 04:00:26;;;;;;;10.47;3.23;;;2.40;99.90;;;;;;5058483;28;20463;-65
2023/03/15 04:02:53;;;;;;;4.30;2.17;;;2.30;99.90;;;;;;5058950;28;20829;-67
2023/03/15 04:05:21;;;;;;;9.20;2.80;;;2.40;99.90;;;;;;5058645;28;20455;-67
2023/03/15 04:07:48;;;;;;;8.00;2.30;;;2.20;99.90;;;;;;5058925;28;20459;-66
2023/03/15 04:10:15;;;;;;;10.00;2.30;;;2.20;99.90;;;;;;5059188;28;20850;-66
2023/03/15 04:12:44;;;;;;;9.67;2.67;;;2.10;99.90;;;;;;5058663;28;20771;-66
2023/03/15 04:15:12;;;;;;;4.80;1.97;;;2.10;99.90;;;;;;5057533;28;20502;-65
2023/03/15 04:17:39;;;;;;;5.83;2.10;;;2.00;99.90;;;;;;5057623;28;21013;-66
2023/03/15 04:20:09;;;;;;;7.70;2.33;;;2.00;99.90;;;;;;5058295;28;20509;-66
2023/03/15 04:22:36;;;;;;;13.50;2.47;;;2.10;99.90;;;;;;5058654;28;20533;-68
2023/03/15 04:25:03;;;;;;;7.83;2.60;;;2.10;99.90;;;;;;5057887;28;20451;-66
2023/03/15 04:27:31;;;;;;;12.13;2.50;;;2.00;99.90;;;;;;5058000;28;20465;-66
2023/03/15 04:30:04;;;;;;;14.27;2.90;;;2.10;99.90;;;;;;5057656;28;20454;-66
2023/03/15 04:32:30;;;;;;;6.80;2.60;;;2.00;99.90;;;;;;5057541;28;20443;-66
2023/03/15 04:34:57;;;;;;;5.20;2.37;;;2.00;99.90;;;;;;5057557;28;20493;-66
2023/03/15 04:37:24;;;;;;;6.23;2.17;;;2.00;99.90;;;;;;5057583;28;20483;-66
2023/03/15 04:39:51;;;;;;;10.60;2.40;;;2.10;99.90;;;;;;5058049;28;20876;-66
2023/03/15 04:42:18;;;;;;;4.77;2.20;;;2.10;99.90;;;;;;5057752;28;20938;-67
2023/03/15 04:44:45;;;;;;;5.83;2.37;;;2.00;99.90;;;;;;5057673;28;20743;-67
2023/03/15 04:47:13;;;;;;;10.97;2.00;;;2.00;99.90;;;;;;5057314;28;20525;-66
2023/03/15 04:49:40;;;;;;;7.00;2.53;;;2.00;99.90;;;;;;5058214;28;20513;-67
2023/03/15 04:52:07;;;;;;;5.90;2.37;;;2.00;99.90;;;;;;5057452;28;20487;-65
2023/03/15 04:54:34;;;;;;;5.00;2.30;;;2.00;99.90;;;;;;5057602;28;20479;-67
2023/03/15 04:57:01;;;;;;;6.53;2.37;;;2.10;99.90;;;;;;5058101;28;20455;-65
2023/03/15 04:59:28;;;;;;;11.63;2.23;;;2.00;99.90;;;;;;5058141;28;20542;-66
2023/03/15 05:01:55;;;;;;;12.40;3.33;;;2.10;99.90;;;;;;5057774;28;20789;-66
2023/03/15 05:04:23;;;;;;;8.33;2.70;;;2.10;99.90;;;;;;5057603;28;20570;-65
2023/03/15 05:06:50;;;;;;;9.10;2.50;;;2.10;99.90;;;;;;5057930;28;20451;-67
2023/03/15 05:09:18;;;;;;;4.17;2.20;;;2.20;99.90;;;;;;5057739;28;20487;-66
2023/03/15 05:11:45;;;;;;;8.00;2.37;;;2.20;99.90;;;;;;5057710;28;20537;-66
2023/03/15 05:14:12;;;;;;;10.67;2.93;;;2.20;99.90;;;;;;5057750;28;20470;-65
2023/03/15 05:16:39;;;;;;;13.23;2.73;;;2.20;99.90;;;;;;5057975;28;20486;-66
2023/03/15 05:19:06;;;;;;;8.03;2.40;;;2.10;99.90;;;;;;5057555;28;20455;-65
2023/03/15 05:21:35;;;;;;;10.40;3.30;;;2.10;99.90;;;;;;5057649;28;20778;-66
2023/03/15 05:24:02;;;;;;;4.10;2.17;;;2.10;99.90;;;;;;5056969;28;20490;-66
2023/03/15 05:26:29;;;;;;;6.53;2.07;;;2.10;99.90;;;;;;5056933;28;20455;-66
2023/03/15 05:28:56;;;;;;;8.03;2.43;;;2.20;99.90;;;;;;5056385;28;20455;-66
2023/03/15 05:31:23;;;;;;;5.73;2.40;;;2.10;99.90;;;;;;5056793;28;20771;-66
2023/03/15 05:33:53;;;;;;;5.47;2.40;;;2.10;99.90;;;;;;5056095;28;20546;-61
2023/03/15 05:36:20;;;;;;;6.73;2.40;;;2.10;99.90;;;;;;5055962;28;20486;-62
2023/03/15 05:38:48;;;;;;;7.00;2.27;;;2.10;99.90;;;;;;5056688;28;20455;-66
2023/03/15 05:41:16;;;;;;;4.60;2.37;;;2.10;99.90;;;;;;5056587;28;20459;-66
2023/03/15 05:43:43;;;;;;;5.13;2.10;;;2.10;99.90;;;;;;5055886;28;20506;-66
2023/03/15 05:46:10;;;;;;;4.40;2.27;;;2.10;99.90;;;;;;5056057;28;20916;-67
2023/03/15 05:48:37;;;;;;;12.20;2.80;;;2.10;99.90;;;;;;5056150;28;20989;-61
2023/03/15 05:51:04;;;;;;;8.00;1.97;;;2.10;99.90;;;;;;5055873;28;20465;-66
2023/03/15 05:53:31;;;;;;;6.43;2.80;;;2.20;99.90;;;;;;5056371;28;20534;-67
2023/03/15 05:55:59;;;;;;;7.33;2.20;;;2.20;99.90;;;;;;5056007;28;20481;-67
2023/03/15 05:58:26;;;;;;;7.77;2.03;;;2.20;99.90;;;;;;5056561;28;20527;-66
2023/03/15 06:00:53;;;;;;;10.60;2.70;;;2.20;99.90;;;;;;5057458;28;20465;-66
2023/03/15 06:03:20;;;;;;;8.50;2.93;;;2.20;99.90;;;;;;5055752;28;20546;-67
2023/03/15 06:05:47;;;;;;;12.43;3.37;;;2.30;99.90;;;;;;5055867;28;20451;-66
2023/03/15 06:08:14;;;;;;;4.93;1.87;;;2.30;99.90;;;;;;5056183;28;20451;-65
2023/03/15 06:10:41;;;;;;;11.60;2.73;;;2.30;99.90;;;;;;5055521;28;20497;-63
2023/03/15 06:13:09;;;;;;;4.67;2.37;;;2.30;99.90;;;;;;5055310;28;20461;-62
2023/03/15 06:15:36;;;;;;;10.50;2.87;;;2.40;99.90;;;;;;5055395;28;20566;-67
2023/03/15 06:18:03;;;;;;;11.53;3.30;;;2.40;99.90;;;;;;5055729;28;20470;-63
2023/03/15 06:20:31;;;;;;;12.43;2.70;;;2.40;99.90;;;;;;5055430;28;20454;-63
2023/03/15 06:22:57;;;;;;;7.67;2.33;;;2.50;99.90;;;;;;5055072;28;20908;-63
2023/03/15 06:25:24;;;;;;;7.97;1.90;;;2.50;99.90;;;;;;5054925;28;20497;-63
2023/03/15 06:27:51;;;;;;;11.43;2.67;;;2.50;99.90;;;;;;5055100;28;20546;-63
2023/03/15 06:30:20;;;;;;;15.33;2.67;;;2.40;99.90;;;;;;5055572;28;20451;-62
2023/03/15 06:32:47;;;;;;;5.00;2.17;;;2.40;99.90;;;;;;5055536;28;20454;-63
2023/03/15 06:35:14;;;;;;;5.20;1.80;;;2.40;99.90;;;;;;5055499;28;20966;-63
2023/03/15 06:37:41;;;;;;;10.20;3.10;;;2.40;99.90;;;;;;5055990;28;20554;-64
2023/03/15 06:40:10;;;;;;;6.60;3.00;;;2.40;99.90;;;;;;5054761;28;20465;-64
2023/03/15 06:42:38;;;;;;;5.93;3.00;;;2.30;99.90;;;;;;5055333;28;20777;-62
2023/03/15 06:45:06;;;;;;;6.40;2.77;;;2.30;99.90;;;;;;5055337;28;20462;-61
2023/03/15 06:47:35;;;;;;;8.50;3.27;;;2.20;99.90;;;;;;5055007;28;20516;-64
2023/03/15 06:50:02;;;;;;;13.43;3.30;;;2.20;99.90;;;;;;5055181;28;20455;-63
2023/03/15 06:52:29;;;;;;;5.90;2.80;;;2.10;99.90;;;;;;5054759;28;20580;-63
2023/03/15 06:54:56;;;;;;;10.00;3.07;;;2.20;99.90;;;;;;5054226;28;20545;-63
2023/03/15 06:57:23;;;;;;;10.50;3.40;;;2.20;99.90;;;;;;5054885;28;20542;-64
2023/03/15 06:59:50;;;;;;;5.87;2.83;;;2.20;99.90;;;;;;5055064;28;20477;-60
2023/03/15 07:02:18;;;;;;;12.97;3.07;;;2.30;99.90;;;;;;5047886;28;20858;-61
2023/03/15 07:04:46;;;;;;;10.00;3.50;;;2.30;99.90;;;;;;5054810;28;20546;-64
2023/03/15 07:07:14;;;;;;;5.90;3.57;;;2.30;99.90;;;;;;5054682;28;20857;-60
2023/03/15 07:09:41;;;;;;;12.57;3.37;;;2.40;99.90;;;;;;5055137;28;20545;-62
2023/03/15 07:12:10;;;;;;;12.67;2.90;;;2.40;99.90;;;;;;5053095;28;20465;-60
2023/03/15 07:14:37;;;;;;;5.10;2.50;;;2.40;99.90;;;;;;5054714;28;20799;-63
2023/03/15 07:17:04;;;;;;;6.83;2.90;;;2.50;99.90;;;;;;5054486;28;20483;-63
2023/03/15 07:19:31;;;;;;;7.07;3.03;;;2.50;99.90;;;;;;5055346;28;20466;-62
2023/03/15 07:21:59;;;;;;;10.20;3.60;;;2.50;99.90;;;;;;5054657;28;20465;-62
2023/03/15 07:24:27;;;;;;;8.67;4.20;;;2.60;99.90;;;;;;5034169;28;20463;-64
2023/03/15 07:26:55;;;;;;;10.67;2.67;;;2.70;99.90;;;;;;5034768;28;20463;-62
2023/03/15 07:29:22;;;;;;;6.90;3.30;;;2.70;99.90;;;;;;5034740;28;20491;-64
2023/03/15 07:31:49;;;;;;;5.07;2.27;;;2.80;99.90;;;;;;5034975;28;20456;-61
2023/03/15 07:34:16;;;;;;;10.17;2.73;;;2.90;99.90;;;;;;5034788;28;20461;-62
2023/03/15 07:36:43;;;;;;;9.63;3.10;;;2.90;99.90;;;;;;5034287;28;21170;-63
2023/03/15 07:39:11;;;;;;;10.27;3.37;;;3.00;99.90;;;;;;5034359;28;20554;-66
2023/03/15 07:41:38;;;;;;;7.20;4.20;;;2.90;99.90;;;;;;5034907;28;20495;-65
2023/03/15 07:44:06;;;;;;;8.17;3.60;;;2.90;99.90;;;;;;5034863;28;20495;-64
2023/03/15 07:46:32;;;;;;;9.23;3.43;;;3.00;99.90;;;;;;5035202;28;20527;-66
2023/03/15 07:48:59;;;;;;;7.63;3.17;;;3.00;99.90;;;;;;5034505;28;20468;-64
2023/03/15 07:51:26;;;;;;;14.63;3.90;;;3.10;99.90;;;;;;5034517;28;20519;-65
2023/03/15 07:53:53;;;;;;;12.23;4.27;;;3.20;99.90;;;;;;5034322;28;20555;-65
2023/03/15 07:56:21;;;;;;;14.90;4.20;;;3.20;99.90;;;;;;5034163;28;20476;-65
2023/03/15 07:58:48;;;;;;;9.07;3.57;;;3.20;99.90;;;;;;5034790;28;20460;-66
2023/03/15 08:01:15;;;;;;;10.60;3.40;;;3.20;99.90;;;;;;5034609;28;20460;-64
2023/03/15 08:03:42;;;;;;;9.13;3.70;;;3.20;99.90;;;;;;5034903;28;20460;-66
2023/03/15 08:06:09;;;;;;;9.27;3.50;;;3.10;99.90;;;;;;5035863;28;20791;-65
2023/03/15 08:08:36;;;;;;;9.80;3.80;;;3.10;99.90;;;;;;5037875;28;20542;-65
2023/03/15 08:11:05;;;;;;;7.87;2.90;;;3.10;99.90;;;;;;5038284;28;20482;-65
2023/03/15 08:13:33;;;;;;;10.23;3.40;;;2.90;99.90;;;;;;5038052;28;20466;-66
2023/03/15 08:16:00;;;;;;;10.60;3.53;;;2.90;99.90;;;;;;5037811;28;20499;-65
2023/03/15 08:18:27;;;;;;;9.30;3.33;;;2.90;99.90;;;;;;5038244;28;20483;-64
2023/03/15 08:20:55;;;;;;;7.07;3.43;;;3.00;99.90;;;;;;5037520;28;20505;-67
2023/03/15 08:23:23;;;;;;;8.53;3.00;;;3.00;99.90;;;;;;5037612;28;20466;-67
2023/03/15 08:25:50;;;;;;;8.80;3.30;;;3.00;99.90;;;;;;5037443;28;20539;-66
2023/03/15 08:28:17;;;;;;;12.80;3.50;;;3.00;99.90;;;;;;5037183;28;20554;-68
2023/03/15 08:30:45;;;;;;;5.03;3.23;;;3.10;99.90;;;;;;5037447;28;20988;-66
2023/03/15 08:33:12;;;;;;;10.63;3.60;;;3.00;99.90;;;;;;5037607;28;20547;-67
2023/03/15 08:35:40;;;;;;;10.47;3.37;;;3.00;99.90;;;;;;5037888;28;20482;-66
2023/03/15 08:38:08;;;;;;;6.90;3.20;;;3.10;99.90;;;;;;5037648;28;20488;-66
2023/03/15 08:40:35;;;;;;;6.90;3.50;;;3.00;99.90;;;;;;5038387;28;20460;-66
2023/03/15 08:43:02;;;;;;;4.37;3.17;;;3.00;99.90;;;;;;5037206;28;20491;-64
2023/03/15 08:45:29;;;;;;;6.40;3.70;;;3.10;99.90;;;;;;5037309;28;20845;-65
2023/03/15 08:47:57;;;;;;;7.20;3.27;;;3.10;99.90;;;;;;5036943;28;20984;-66
2023/03/15 08:50:25;;;;;;;6.30;2.93;;;3.20;99.90;;;;;;5036851;28;20552;-69
2023/03/15 08:52:52;;;;;;;11.23;3.37;;;3.30;99.90;;;;;;5037257;28;20460;-66
2023/03/15 08:55:19;;;;;;;7.13;3.20;;;3.30;99.90;;;;;;5037190;28;20466;-66
2023/03/15 08:57:46;;;;;;;6.77;3.53;;;3.20;99.90;;;;;;5036883;28;20462;-65
2023/03/15 09:00:16;;;;;;;13.63;4.77;;;3.30;99.90;;;;;;5037170;28;21031;-66
2023/03/15 09:02:43;;;;;;;13.67;3.80;;;3.30;99.90;;;;;;5037470;28;20451;-67
2023/03/15 09:05:12;;;;;;;9.97;2.80;;;3.20;99.90;;;;;;5037077;28;20892;-66
2023/03/15 09:07:41;;;;;;;5.07;3.50;;;3.20;99.90;;;;;;5037034;28;20539;-65
2023/03/15 09:10:08;;;;;;;5.20;3.50;;;3.20;99.90;;;;;;5036485;28;20956;-66
2023/03/15 09:12:36;;;;;;;5.13;2.90;;;3.30;99.90;;;;;;5036617;28;20798;-66
2023/03/15 09:15:02;;;;;;;13.43;3.40;;;3.40;99.90;;;;;;5035940;28;20488;-64
2023/03/15 09:17:29;;;;;;;8.13;3.20;;;3.40;99.90;;;;;;5034966;28;20484;-65
2023/03/15 09:19:56;;;;;;;11.07;3.10;;;3.40;99.90;;;;;;5036841;28;20466;-65
2023/03/15 09:22:24;;;;;;;6.83;4.07;;;3.50;99.90;;;;;;5036415;28;20456;-65
2023/03/15 09:24:51;;;;;;;7.63;3.00;;;3.60;99.90;;;;;;5036343;28;20852;-66
2023/03/15 09:27:18;;;;;;;7.50;2.90;;;3.60;99.90;;;;;;5036110;28;20780;-66
2023/03/15 09:29:45;;;;;;;4.53;2.93;;;3.70;99.90;;;;;;5036068;28;20460;-66
2023/03/15 09:32:12;;;;;;;9.80;3.70;;;3.80;99.90;;;;;;5036663;28;20487;-65
2023/03/15 09:34:40;;;;;;;8.37;3.67;;;3.90;99.90;;;;;;5036666;28;20566;-65
2023/03/15 09:37:07;;;;;;;9.60;3.43;;;3.90;99.90;;;;;;5036544;28;20491;-66
2023/03/15 09:39:36;;;;;;;6.50;4.60;;;3.80;99.90;;;;;;5036187;28;20460;-66
2023/03/15 09:42:07;;;;;;;7.03;3.93;;;3.80;99.90;;;;;;5036225;28;20464;-66
2023/03/15 09:44:44;;;;;;;3.43;3.10;;;3.80;99.90;;;;;;5037785;28;20440;-65
2023/03/15 09:47:28;;;;;;;10.07;3.40;;;3.70;99.90;;;;;;5037336;28;20480;-65
2023/03/15 09:49:59;;;;;;;4.67;3.37;;;3.70;99.90;;;;;;5036796;28;20795;-66
2023/03/15 09:52:33;;;;;;;6.00;3.00;;;3.70;99.90;;;;;;5037001;28;20483;-66
2023/03/15 09:55:06;;;;;;;5.30;3.00;;;3.70;99.90;;;;;;5037149;28;20443;-66
2023/03/15 09:57:40;;;;;;;7.57;3.07;;;3.80;99.90;;;;;;5037024;28;21055;-66
2023/03/15 10:00:13;;;;;;;6.40;3.53;;;4.00;99.90;;;;;;5036949;28;20780;-66
2023/03/15 10:02:46;;;;;;;4.03;2.80;;;4.00;99.90;;;;;;5037567;28;20444;-66
2023/03/15 10:05:19;;;;;;;7.43;2.73;;;4.00;99.90;;;;;;5036373;28;20776;-66
2023/03/15 10:07:47;;;;;;;4.80;2.43;;;4.00;99.90;;;;;;5035720;28;20448;-65
2023/03/15 10:10:23;;;;;;;4.00;2.73;;;3.90;99.90;;;;;;5036279;28;20498;-67
2023/03/15 10:12:57;;;;;;;5.50;2.60;;;4.00;99.90;;;;;;5036135;28;20444;-65
2023/03/15 10:15:36;;;;;;;3.87;2.53;;;4.00;99.90;;;;;;5035551;28;20573;-66
2023/03/15 10:18:26;;;;;;;6.60;3.07;;;3.90;99.90;;;;;;5036198;28;20946;-65
2023/03/15 10:21:00;;;;;;;6.00;2.90;;;4.00;99.90;;;;;;5036845;28;20524;-64
2023/03/15 10:23:38;;;;;;;6.50;3.00;;;4.20;99.90;;;;;;5036173;28;20447;-65
2023/03/15 10:26:12;;;;;;;4.67;2.37;;;4.40;99.90;;;;;;5035667;28;20444;-66
2023/03/15 10:28:39;;;;;;;4.53;2.30;;;4.30;99.90;;;;;;5035359;28;20778;-66
2023/03/15 10:31:13;;;;;;;12.90;3.03;;;4.40;99.90;;;;;;5035489;28;20558;-65
2023/03/15 10:33:41;;;;;;;5.03;2.90;;;4.40;99.90;;;;;;5035461;28;20535;-66
2023/03/15 10:36:16;;;;;;;5.60;3.50;;;4.40;99.90;;;;;;5034923;28;20466;-66
2023/03/15 10:38:43;;;;;;;4.30;2.70;;;4.50;99.90;;;;;;5035899;28;20450;-66
2023/03/15 10:41:15;;;;;;;3.50;3.20;;;4.50;99.90;;;;;;5035440;28;20468;-67
2023/03/15 10:43:55;;;;;;;6.33;3.00;;;4.50;99.90;;;;;;5035320;28;20535;-66
2023/03/15 10:46:24;;;;;;;9.37;3.13;;;4.50;99.90;;;;;;5036228;28;20837;-65
2023/03/15 10:48:56;;;;;;;6.90;3.00;;;4.50;99.90;;;;;;5035100;28;20464;-64
2023/03/15 10:51:26;;;;;;;6.43;2.43;;;4.50;99.90;;;;;;5035659;28;20800;-68
2023/03/15 10:53:55;;;;;;;10.33;2.87;;;4.50;99.90;;;;;;5036530;28;20448;-66
2023/03/15 10:56:25;;;;;;;7.73;3.40;;;4.60;99.90;;;;;;5036460;28;20515;-66
2023/03/15 10:58:54;;;;;;;7.30;2.80;;;4.70;99.90;;;;;;5035884;28;20516;-66
2023/03/15 11:01:26;;;;;;;5.93;2.70;;;4.70;99.90;;;;;;5035561;28;20455;-65
2023/03/15 11:04:12;;;;;;;7.30;2.70;;;4.80;99.90;;;;;;5035215;28;20554;-65
2023/03/15 11:06:42;;;;;;;2.60;2.10;;;4.80;99.90;;;;;;5035623;28;20440;-65
2023/03/15 11:09:11;;;;;;;3.97;2.27;;;4.70;99.90;;;;;;5034720;28;20479;-65
2023/03/15 11:11:58;;;;;;;3.37;2.37;;;4.70;99.90;;;;;;5034684;28;20460;-66
2023/03/15 11:14:26;;;;;;;3.80;2.20;;;4.90;99.90;;;;;;5034428;28;20575;-67
2023/03/15 11:16:55;;;;;;;2.33;1.87;;;5.10;99.90;;;;;;5034828;28;20790;-66
2023/03/15 11:19:26;;;;;;;3.20;2.03;;;5.30;99.90;;;;;;5034902;28;20455;-66
2023/03/15 11:21:53;;;;;;;8.20;2.20;;;5.60;99.90;;;;;;5035268;28;20456;-68
2023/03/15 11:24:26;;;;;;;8.13;2.57;;;5.80;99.90;;;;;;5034949;28;20920;-66
2023/03/15 11:27:00;;;;;;;2.30;2.00;;;5.70;99.90;;;;;;5034737;28;20436;-66
2023/03/15 11:29:30;;;;;;;3.30;2.00;;;5.40;99.90;;;;;;5034376;28;20455;-66
2023/03/15 11:31:59;;;;;;;5.43;2.57;;;5.30;99.90;;;;;;5034550;28;20456;-65
2023/03/15 11:34:38;;;;;;;4.00;2.20;;;5.20;99.90;;;;;;5034605;28;20466;-65
2023/03/15 11:37:13;;;;;;;3.87;2.37;;;5.10;99.90;;;;;;5034632;28;20547;-67
2023/03/15 11:39:44;;;;;;;5.77;2.00;;;5.20;99.90;;;;;;5034076;28;20444;-66
2023/03/15 11:42:18;;;;;;;3.80;1.80;;;5.30;99.90;;;;;;5037618;28;20440;-65
2023/03/15 11:44:47;;;;;;;13.13;2.33;;;5.40;99.90;;;;;;5038541;28;20450;-66
2023/03/15 11:47:23;;;;;;;4.57;2.00;;;5.50;99.90;;;;;;5038374;28;20487;-66
2023/03/15 11:49:52;;;;;;;4.37;2.10;;;5.40;99.90;;;;;;5038097;28;20444;-65
2023/03/15 11:52:22;;;;;;;4.50;1.97;;;5.40;99.90;;;;;;5038488;28;20478;-65
2023/03/15 11:54:50;;;;;;;4.50;2.43;;;5.40;99.90;;;;;;5038178;28;20452;-66
2023/03/15 11:57:39;;;;;;;2.23;1.60;;;5.50;99.90;;;;;;5038377;28;20814;-66
2023/03/15 12:00:51;;;;;;;2.70;1.70;;;5.80;99.90;;;;;;5038073;28;20462;-66
2023/03/15 12:03:37;;;;;;;6.93;2.33;;;6.50;99.90;;;;;;5001893;28;20867;-66
2023/03/15 12:06:11;;;;;;;4.30;1.90;;;7.70;99.90;;;;;;5038432;28;20440;-66
2023/03/15 12:08:44;;;;;;;3.80;1.80;;;8.10;99.90;;;;;;5038134;28;20468;-65
2023/03/15 12:11:12;;;;;;;4.33;1.90;;;8.40;99.90;;;;;;5038230;28;20468;-66
2023/03/15 12:13:52;;;;;;;2.90;1.70;;;8.10;99.90;;;;;;5038351;28;20463;-66
2023/03/15 12:16:21;;;;;;;4.67;1.57;;;7.50;99.90;;;;;;5038057;28;20952;-66
2023/03/15 12:18:49;;;;;;;5.33;2.43;;;7.10;99.90;;;;;;5038100;28;20471;-65
2023/03/15 12:21:23;;;;;;;7.23;1.53;;;7.10;99.90;;;;;;5038512;28;20491;-66
2023/03/15 12:23:58;;;;;;;4.70;2.63;;;7.60;99.90;;;;;;5038864;28;20520;-65
2023/03/15 12:26:32;;;;;;;7.07;2.20;;;8.30;99.90;;;;;;5038336;28;20800;-65
2023/03/15 12:29:13;;;;;;;3.63;1.63;;;9.00;99.90;;;;;;5038211;28;20436;-65
2023/03/15 12:31:51;;;;;;;9.17;2.43;;;8.70;99.90;;;;;;5038150;28;20440;-66
2023/03/15 12:34:36;;;;;;;5.17;2.10;;;8.70;99.90;;;;;;5038211;28;20443;-64
2023/03/15 12:37:07;;;;;;;3.97;1.70;;;9.10;99.90;;;;;;5037896;28;20499;-66
2023/03/15 12:39:39;;;;;;;5.80;1.80;;;9.70;99.90;;;;;;5037629;28;20523;-66
2023/03/15 12:42:11;;;;;;;5.20;1.30;;;10.30;96.90;;;;;;5037506;28;20531;-64
2023/03/15 12:44:41;;;;;;;3.20;1.50;;;10.00;93.60;;;;;;5037602;28;20532;-66
2023/03/15 12:47:09;;;;;;;5.30;1.40;;;10.50;92.80;;;;;;5037420;28;20935;-67
2023/03/15 12:49:41;;;;;;;3.33;1.77;;;10.40;91.80;;;;;;5037659;28;20856;-65
2023/03/15 12:52:41;;;;;;;2.27;1.43;;;10.30;87.90;;;;;;5037004;28;20456;-65
2023/03/15 12:55:15;;;;;;;4.33;1.77;;;10.50;87.20;;;;;;5037181;28;20458;-66
2023/03/15 12:57:49;;;;;;;2.53;1.27;;;10.90;85.60;;;;;;5036771;28;20468;-66
2023/03/15 13:00:20;;;;;;;2.30;1.40;;;11.80;78.60;;;;;;5037186;28;20462;-65
2023/03/15 13:02:50;;;;;;;3.37;1.60;;;12.90;64.70;;;;;;5036807;28;20476;-66
2023/03/15 13:05:22;;;;;;;4.27;1.77;;;12.80;57.30;;;;;;5037225;28;20472;-66